Meteo Giornale » Osservazioni meteo Portogallo » Monte Real
ore: 18:00 - Osservazioni Meteo Monte Real
Lat. 39° 49' N Lon. 8° 52' W Alt. 54 metri s.l.m.
22 °C
Poco Nuvoloso
Temp. 24 Ore
14 °C
24 °C
Nord/NOvest
27.8 Km/h
Dew point 15 °C
Umidità 64 %
Visibilità 10 Km
Il sole sorge alle ore 07:02
Il sole tramonta alle ore 20:08
| Data e Ora | Cielo e Fenomeni | T °C | DP °C | Um. % | Pres. hPa | Vis. km | Vento km/h | |
|---|---|---|---|---|---|---|---|---|
| Oggi h: 18:00 | Poco Nuvoloso | 22 | 15 | 64 | 1020 | 10 | N/NO 27.8 | |
| Oggi h: 17:00 | Poco Nuvoloso | 23 | 14 | 56 | 1020 | 10 | N/NO 31.5 | |
| Oggi h: 16:00 | Poco Nuvoloso | 23 | 14 | 56 | 1020 | 10 | N/NO 31.5 | |
| Oggi h: 15:00 | Poco Nuvoloso | 23 | 14 | 56 | 1021 | 10 | N/NO 33.3 | |
| Oggi h: 14:00 | Poco Nuvoloso | 24 | 15 | 57 | 1021 | 10 | N/NO 31.5 | |
| Oggi h: 13:00 | Poco Nuvoloso | 24 | 14 | 53 | 1021 | 10 | N/NO 33.3 | |
| Oggi h: 12:00 | Poco Nuvoloso | 23 | 14 | 56 | 1021 | 10 | N/NO 29.6 | |
| Oggi h: 11:00 | Poco Nuvoloso | 23 | 15 | 60 | 1021 | 10 | N/NO 16.7 | |
| Oggi h: 10:00 | Poco Nuvoloso | 20 | 16 | 77 | 1021 | 10 | N 11.1 | |
| Oggi h: 09:00 | Poco Nuvoloso | 17 | 15 | 88 | 1021 | 10 | N 7.4 | |
| Oggi h: 08:00 | Poco Nuvoloso | 14 | 13 | 93 | 1021 | 8 | N 5.5 | |
| Oggi h: 07:00 | Nebbia | 14 | 14 | 100 | 1021 | 9 | N 1.8 | |
| Oggi h: 06:00 | Poco Nuvoloso | 14 | 13 | 93 | 1020 | 10 | N 1.8 | |
| Oggi h: 05:00 | Sereno | 15 | 13 | 87 | 1021 | 10 | N 3.7 | |
| Oggi h: 04:00 | Poco Nuvoloso | 16 | 14 | 87 | 1021 | 10 | N/NO 7.4 | |
| Oggi h: 03:00 | Poco Nuvoloso | 17 | 15 | 88 | 1021 | 10 | N 5.5 | |
| Oggi h: 02:00 | Poco Nuvoloso | 17 | 15 | 88 | 1021 | 10 | N 9.3 | |
| Oggi h: 01:00 | Poco Nuvoloso | 17 | 15 | 88 | 1022 | 10 | N 5.5 | |
| Oggi h: 00:00 | Poco Nuvoloso | 17 | 15 | 88 | 1022 | 10 | N 7.4 | |
| Ieri h: 23:00 | Poco Nuvoloso | 18 | 15 | 82 | 1021 | 10 | N 11.1 | |
| Ieri h: 22:00 | Poco Nuvoloso | 19 | 15 | 77 | 1021 | 10 | N 13 | |
| Ieri h: 21:00 | Poco Nuvoloso | 19 | 16 | 82 | 1021 | 10 | N/NO 16.7 | |
| Ieri h: 20:00 | Poco Nuvoloso | 20 | 16 | 77 | 1020 | 10 | N 20.3 | |
| Ieri h: 19:00 | Sereno | 22 | 15 | 64 | 1020 | 10 | N/NO 27.8 | |



